KPKD

Park Rapids Municipal-Konshok Field Airport

Park Rapids, Minnesota, USA
METAR KPKD 220653Z AUTO 19003KT 10SM CLR 05/02 A3026 RMK AO2 SLP256 T00500022
Observed Flight Rules
Sep-22 @ 06:53 UTC (29 minutes ago) Visual Flight Rules
Wind Visibility Clouds
190° at 3 knots 10 miles
Temperatures Readings
Current 5°C / 41°F
Dewpoint 2°C / 36°F
Humidity 81%
Altimeter 30.26" Hg
Pressure 1025.6 hPa
Elevation 442
METAR KPKD 220653Z AUTO 19003KT 10SM CLR 05/02 A3026 RMK AO2 SLP256 T00500022
Observed Flight Rules
Sep-22 @ 06:53 UTC
(29 minutes ago)
VFR
Wind Visibility
190° at 3 knots 10 miles
Clouds
Temperature Dewpoint
5°C / 41°F 2°C / 36°F
Humidity Altimeter Pressure
81% 30.26" Hg 1025.6 hPa